sensor_id;sensor_type;location;lat;lon;timestamp;P1;durP1;ratioP1;P2;durP2;ratioP2
44696;SDS011;57264;47.480;19.354;2023-03-29T00:00:54;2.87;;;2.40;;
44696;SDS011;57264;47.480;19.354;2023-03-29T00:03:24;4.53;;;2.63;;
44696;SDS011;57264;47.480;19.354;2023-03-29T00:05:50;3.45;;;2.50;;
44696;SDS011;57264;47.480;19.354;2023-03-29T00:08:22;3.58;;;2.28;;
44696;SDS011;57264;47.480;19.354;2023-03-29T00:10:48;3.95;;;2.97;;
44696;SDS011;57264;47.480;19.354;2023-03-29T00:13:15;3.67;;;2.40;;
44696;SDS011;57264;47.480;19.354;2023-03-29T00:15:40;5.37;;;2.63;;
44696;SDS011;57264;47.480;19.354;2023-03-29T00:18:06;3.95;;;2.20;;
44696;SDS011;57264;47.480;19.354;2023-03-29T00:20:32;5.03;;;2.90;;
44696;SDS011;57264;47.480;19.354;2023-03-29T00:22:57;5.33;;;2.93;;
44696;SDS011;57264;47.480;19.354;2023-03-29T00:25:23;8.73;;;3.83;;
44696;SDS011;57264;47.480;19.354;2023-03-29T00:27:48;9.93;;;3.97;;
44696;SDS011;57264;47.480;19.354;2023-03-29T00:30:14;5.73;;;2.87;;
44696;SDS011;57264;47.480;19.354;2023-03-29T00:32:40;6.85;;;3.70;;
44696;SDS011;57264;47.480;19.354;2023-03-29T00:35:06;8.00;;;4.03;;
44696;SDS011;57264;47.480;19.354;2023-03-29T00:37:33;8.90;;;4.47;;
44696;SDS011;57264;47.480;19.354;2023-03-29T00:39:59;10.18;;;3.47;;
44696;SDS011;57264;47.480;19.354;2023-03-29T00:42:25;6.03;;;3.07;;
44696;SDS011;57264;47.480;19.354;2023-03-29T00:47:27;5.75;;;2.80;;
44696;SDS011;57264;47.480;19.354;2023-03-29T00:50:05;3.92;;;2.97;;
44696;SDS011;57264;47.480;19.354;2023-03-29T00:55:51;5.03;;;3.13;;
44696;SDS011;57264;47.480;19.354;2023-03-29T00:58:23;5.30;;;2.95;;
44696;SDS011;57264;47.480;19.354;2023-03-29T01:03:27;7.32;;;3.70;;
44696;SDS011;57264;47.480;19.354;2023-03-29T01:05:59;6.75;;;3.35;;
44696;SDS011;57264;47.480;19.354;2023-03-29T01:08:31;6.07;;;3.55;;
44696;SDS011;57264;47.480;19.354;2023-03-29T01:11:03;6.30;;;3.17;;
44696;SDS011;57264;47.480;19.354;2023-03-29T01:13:55;5.20;;;3.35;;
44696;SDS011;57264;47.480;19.354;2023-03-29T01:16:40;4.20;;;3.15;;
44696;SDS011;57264;47.480;19.354;2023-03-29T01:19:07;6.23;;;3.10;;
44696;SDS011;57264;47.480;19.354;2023-03-29T01:21:45;3.83;;;2.97;;
44696;SDS011;57264;47.480;19.354;2023-03-29T01:27:19;6.93;;;3.22;;
44696;SDS011;57264;47.480;19.354;2023-03-29T01:30:11;7.05;;;3.65;;
44696;SDS011;57264;47.480;19.354;2023-03-29T01:32:44;8.13;;;3.40;;
44696;SDS011;57264;47.480;19.354;2023-03-29T01:35:28;5.43;;;3.63;;
44696;SDS011;57264;47.480;19.354;2023-03-29T01:38:08;6.85;;;4.45;;
44696;SDS011;57264;47.480;19.354;2023-03-29T01:40:43;5.50;;;3.70;;
44696;SDS011;57264;47.480;19.354;2023-03-29T01:45:47;5.53;;;3.83;;
44696;SDS011;57264;47.480;19.354;2023-03-29T01:48:30;9.02;;;4.82;;
44696;SDS011;57264;47.480;19.354;2023-03-29T01:51:07;16.20;;;7.32;;
44696;SDS011;57264;47.480;19.354;2023-03-29T01:56:22;14.18;;;6.93;;
44696;SDS011;57264;47.480;19.354;2023-03-29T01:58:53;47.83;;;22.42;;
44696;SDS011;57264;47.480;19.354;2023-03-29T02:01:24;50.08;;;22.35;;
44696;SDS011;57264;47.480;19.354;2023-03-29T02:03:57;41.15;;;17.42;;
44696;SDS011;57264;47.480;19.354;2023-03-29T02:06:29;34.10;;;15.82;;
44696;SDS011;57264;47.480;19.354;2023-03-29T02:08:57;22.33;;;13.23;;
44696;SDS011;57264;47.480;19.354;2023-03-29T02:11:23;26.00;;;11.95;;
44696;SDS011;57264;47.480;19.354;2023-03-29T02:13:51;24.58;;;16.42;;
44696;SDS011;57264;47.480;19.354;2023-03-29T02:16:17;29.77;;;13.32;;
44696;SDS011;57264;47.480;19.354;2023-03-29T02:18:44;26.05;;;13.60;;
44696;SDS011;57264;47.480;19.354;2023-03-29T02:21:15;17.50;;;8.18;;
44696;SDS011;57264;47.480;19.354;2023-03-29T02:23:48;12.85;;;7.00;;
44696;SDS011;57264;47.480;19.354;2023-03-29T02:26:19;15.85;;;8.18;;
44696;SDS011;57264;47.480;19.354;2023-03-29T02:28:46;13.00;;;6.10;;
44696;SDS011;57264;47.480;19.354;2023-03-29T02:31:14;13.73;;;6.00;;
44696;SDS011;57264;47.480;19.354;2023-03-29T02:36:49;8.00;;;5.55;;
44696;SDS011;57264;47.480;19.354;2023-03-29T02:39:19;5.95;;;4.40;;
44696;SDS011;57264;47.480;19.354;2023-03-29T02:41:47;8.50;;;4.95;;
44696;SDS011;57264;47.480;19.354;2023-03-29T02:44:21;7.28;;;5.10;;
44696;SDS011;57264;47.480;19.354;2023-03-29T02:46:52;8.60;;;6.15;;
44696;SDS011;57264;47.480;19.354;2023-03-29T02:49:22;5.95;;;4.43;;
44696;SDS011;57264;47.480;19.354;2023-03-29T02:51:49;6.10;;;4.32;;
44696;SDS011;57264;47.480;19.354;2023-03-29T02:54:19;8.23;;;6.20;;
44696;SDS011;57264;47.480;19.354;2023-03-29T02:59:25;6.40;;;5.80;;
44696;SDS011;57264;47.480;19.354;2023-03-29T03:01:54;7.75;;;5.78;;
44696;SDS011;57264;47.480;19.354;2023-03-29T03:04:20;6.30;;;5.50;;
44696;SDS011;57264;47.480;19.354;2023-03-29T03:06:46;9.70;;;7.70;;
44696;SDS011;57264;47.480;19.354;2023-03-29T03:09:12;9.80;;;7.88;;
44696;SDS011;57264;47.480;19.354;2023-03-29T03:11:38;7.75;;;5.95;;
44696;SDS011;57264;47.480;19.354;2023-03-29T03:14:04;10.27;;;5.83;;
44696;SDS011;57264;47.480;19.354;2023-03-29T03:16:31;6.93;;;5.30;;
44696;SDS011;57264;47.480;19.354;2023-03-29T03:18:57;9.18;;;8.40;;
44696;SDS011;57264;47.480;19.354;2023-03-29T03:21:23;11.07;;;6.40;;
44696;SDS011;57264;47.480;19.354;2023-03-29T03:23:50;9.20;;;4.93;;
44696;SDS011;57264;47.480;19.354;2023-03-29T03:26:16;8.60;;;5.38;;
44696;SDS011;57264;47.480;19.354;2023-03-29T03:28:42;8.93;;;5.75;;
44696;SDS011;57264;47.480;19.354;2023-03-29T03:31:10;12.35;;;6.57;;
44696;SDS011;57264;47.480;19.354;2023-03-29T03:33:39;11.25;;;5.60;;
44696;SDS011;57264;47.480;19.354;2023-03-29T03:36:09;8.25;;;5.88;;
44696;SDS011;57264;47.480;19.354;2023-03-29T03:38:38;8.73;;;5.60;;
44696;SDS011;57264;47.480;19.354;2023-03-29T03:41:04;9.57;;;5.93;;
44696;SDS011;57264;47.480;19.354;2023-03-29T03:43:31;11.27;;;6.15;;
44696;SDS011;57264;47.480;19.354;2023-03-29T03:45:57;14.07;;;6.60;;
44696;SDS011;57264;47.480;19.354;2023-03-29T03:48:23;11.27;;;6.13;;
44696;SDS011;57264;47.480;19.354;2023-03-29T03:50:50;8.70;;;6.63;;
44696;SDS011;57264;47.480;19.354;2023-03-29T03:53:17;10.82;;;7.43;;
44696;SDS011;57264;47.480;19.354;2023-03-29T03:55:47;10.65;;;7.75;;
44696;SDS011;57264;47.480;19.354;2023-03-29T03:58:13;11.18;;;8.95;;
44696;SDS011;57264;47.480;19.354;2023-03-29T04:00:39;12.45;;;9.90;;
44696;SDS011;57264;47.480;19.354;2023-03-29T04:03:05;11.32;;;8.52;;
44696;SDS011;57264;47.480;19.354;2023-03-29T04:05:31;16.37;;;14.87;;
44696;SDS011;57264;47.480;19.354;2023-03-29T04:07:57;12.53;;;11.20;;
44696;SDS011;57264;47.480;19.354;2023-03-29T04:10:22;12.40;;;10.43;;
44696;SDS011;57264;47.480;19.354;2023-03-29T04:12:48;12.40;;;11.30;;
44696;SDS011;57264;47.480;19.354;2023-03-29T04:15:14;12.00;;;10.20;;
44696;SDS011;57264;47.480;19.354;2023-03-29T04:17:42;10.32;;;8.05;;
44696;SDS011;57264;47.480;19.354;2023-03-29T04:20:07;10.73;;;7.73;;
44696;SDS011;57264;47.480;19.354;2023-03-29T04:22:37;10.05;;;9.15;;
44696;SDS011;57264;47.480;19.354;2023-03-29T04:25:04;28.42;;;10.07;;
44696;SDS011;57264;47.480;19.354;2023-03-29T04:27:32;9.85;;;8.25;;
44696;SDS011;57264;47.480;19.354;2023-03-29T04:29:58;7.43;;;6.73;;
44696;SDS011;57264;47.480;19.354;2023-03-29T04:32:23;6.50;;;5.80;;
44696;SDS011;57264;47.480;19.354;2023-03-29T04:34:49;11.80;;;5.47;;
44696;SDS011;57264;47.480;19.354;2023-03-29T04:37:14;8.60;;;6.37;;
44696;SDS011;57264;47.480;19.354;2023-03-29T04:39:47;10.00;;;8.82;;
44696;SDS011;57264;47.480;19.354;2023-03-29T04:42:13;11.30;;;6.28;;
44696;SDS011;57264;47.480;19.354;2023-03-29T04:44:39;8.13;;;7.10;;
44696;SDS011;57264;47.480;19.354;2023-03-29T04:47:06;8.50;;;6.80;;
44696;SDS011;57264;47.480;19.354;2023-03-29T04:49:32;8.40;;;5.93;;
44696;SDS011;57264;47.480;19.354;2023-03-29T04:51:57;6.50;;;5.40;;
44696;SDS011;57264;47.480;19.354;2023-03-29T04:54:24;11.10;;;5.65;;
44696;SDS011;57264;47.480;19.354;2023-03-29T04:56:50;10.70;;;5.50;;
44696;SDS011;57264;47.480;19.354;2023-03-29T04:59:16;7.82;;;6.93;;
44696;SDS011;57264;47.480;19.354;2023-03-29T05:01:42;8.93;;;5.32;;
44696;SDS011;57264;47.480;19.354;2023-03-29T05:04:09;9.15;;;5.30;;
44696;SDS011;57264;47.480;19.354;2023-03-29T05:06:34;7.33;;;5.07;;
44696;SDS011;57264;47.480;19.354;2023-03-29T05:09:01;11.77;;;7.80;;
44696;SDS011;57264;47.480;19.354;2023-03-29T05:11:29;8.18;;;5.70;;
44696;SDS011;57264;47.480;19.354;2023-03-29T05:13:54;10.17;;;8.53;;
44696;SDS011;57264;47.480;19.354;2023-03-29T05:16:24;9.20;;;6.85;;
44696;SDS011;57264;47.480;19.354;2023-03-29T05:18:50;11.37;;;8.50;;
44696;SDS011;57264;47.480;19.354;2023-03-29T05:21:16;10.27;;;7.93;;
44696;SDS011;57264;47.480;19.354;2023-03-29T05:23:41;13.33;;;7.13;;
44696;SDS011;57264;47.480;19.354;2023-03-29T05:26:07;13.23;;;7.67;;
44696;SDS011;57264;47.480;19.354;2023-03-29T05:28:34;16.25;;;7.53;;
44696;SDS011;57264;47.480;19.354;2023-03-29T05:31:00;18.03;;;8.37;;
44696;SDS011;57264;47.480;19.354;2023-03-29T05:33:28;11.80;;;6.90;;
44696;SDS011;57264;47.480;19.354;2023-03-29T05:35:58;10.23;;;5.75;;
44696;SDS011;57264;47.480;19.354;2023-03-29T05:38:25;7.82;;;5.75;;
44696;SDS011;57264;47.480;19.354;2023-03-29T05:40:51;10.43;;;5.33;;
44696;SDS011;57264;47.480;19.354;2023-03-29T05:43:17;7.32;;;5.03;;
44696;SDS011;57264;47.480;19.354;2023-03-29T05:45:42;9.40;;;5.57;;
44696;SDS011;57264;47.480;19.354;2023-03-29T05:48:08;10.27;;;5.80;;
44696;SDS011;57264;47.480;19.354;2023-03-29T05:50:34;12.03;;;5.33;;
44696;SDS011;57264;47.480;19.354;2023-03-29T05:53:03;12.85;;;5.15;;
44696;SDS011;57264;47.480;19.354;2023-03-29T05:55:29;10.23;;;5.73;;
44696;SDS011;57264;47.480;19.354;2023-03-29T05:57:54;15.70;;;6.40;;
44696;SDS011;57264;47.480;19.354;2023-03-29T06:00:20;12.43;;;6.73;;
44696;SDS011;57264;47.480;19.354;2023-03-29T06:02:50;12.90;;;6.72;;
44696;SDS011;57264;47.480;19.354;2023-03-29T06:05:20;15.88;;;7.63;;
44696;SDS011;57264;47.480;19.354;2023-03-29T06:07:46;18.63;;;8.00;;
44696;SDS011;57264;47.480;19.354;2023-03-29T06:10:16;22.60;;;8.40;;
44696;SDS011;57264;47.480;19.354;2023-03-29T06:12:42;23.85;;;8.77;;
44696;SDS011;57264;47.480;19.354;2023-03-29T06:15:09;18.13;;;7.55;;
44696;SDS011;57264;47.480;19.354;2023-03-29T06:17:35;13.05;;;6.00;;
44696;SDS011;57264;47.480;19.354;2023-03-29T06:20:01;10.90;;;4.60;;
44696;SDS011;57264;47.480;19.354;2023-03-29T06:22:31;7.80;;;4.82;;
44696;SDS011;57264;47.480;19.354;2023-03-29T06:24:57;9.57;;;5.38;;
44696;SDS011;57264;47.480;19.354;2023-03-29T06:27:22;7.73;;;4.57;;
44696;SDS011;57264;47.480;19.354;2023-03-29T06:29:48;8.53;;;4.33;;
44696;SDS011;57264;47.480;19.354;2023-03-29T06:32:13;8.73;;;4.53;;
44696;SDS011;57264;47.480;19.354;2023-03-29T06:34:40;11.63;;;5.07;;
44696;SDS011;57264;47.480;19.354;2023-03-29T06:37:05;7.40;;;4.57;;
44696;SDS011;57264;47.480;19.354;2023-03-29T06:39:31;9.23;;;4.60;;
44696;SDS011;57264;47.480;19.354;2023-03-29T06:41:57;6.07;;;4.10;;
44696;SDS011;57264;47.480;19.354;2023-03-29T06:44:22;7.63;;;4.07;;
44696;SDS011;57264;47.480;19.354;2023-03-29T06:46:48;8.90;;;4.90;;
44696;SDS011;57264;47.480;19.354;2023-03-29T06:49:13;9.10;;;5.10;;
44696;SDS011;57264;47.480;19.354;2023-03-29T06:51:39;8.80;;;4.40;;
44696;SDS011;57264;47.480;19.354;2023-03-29T06:54:05;8.48;;;4.72;;
44696;SDS011;57264;47.480;19.354;2023-03-29T06:56:31;8.13;;;5.28;;
44696;SDS011;57264;47.480;19.354;2023-03-29T06:58:58;11.23;;;5.05;;
44696;SDS011;57264;47.480;19.354;2023-03-29T07:01:23;9.80;;;4.70;;
44696;SDS011;57264;47.480;19.354;2023-03-29T07:03:49;8.60;;;4.93;;
44696;SDS011;57264;47.480;19.354;2023-03-29T07:06:15;10.23;;;4.40;;
44696;SDS011;57264;47.480;19.354;2023-03-29T07:08:48;6.50;;;4.15;;
44696;SDS011;57264;47.480;19.354;2023-03-29T07:11:16;10.02;;;5.70;;
44696;SDS011;57264;47.480;19.354;2023-03-29T07:13:43;6.45;;;4.07;;
44696;SDS011;57264;47.480;19.354;2023-03-29T07:16:12;8.95;;;4.50;;
44696;SDS011;57264;47.480;19.354;2023-03-29T07:18:38;9.68;;;4.47;;
44696;SDS011;57264;47.480;19.354;2023-03-29T07:21:06;7.20;;;4.38;;
44696;SDS011;57264;47.480;19.354;2023-03-29T07:23:32;8.05;;;4.40;;
44696;SDS011;57264;47.480;19.354;2023-03-29T07:25:58;5.00;;;4.00;;
44696;SDS011;57264;47.480;19.354;2023-03-29T07:28:24;7.38;;;3.78;;
44696;SDS011;57264;47.480;19.354;2023-03-29T07:30:50;9.23;;;4.97;;
44696;SDS011;57264;47.480;19.354;2023-03-29T07:33:15;7.03;;;3.90;;
44696;SDS011;57264;47.480;19.354;2023-03-29T07:35:42;7.13;;;4.60;;
44696;SDS011;57264;47.480;19.354;2023-03-29T07:38:08;10.32;;;4.53;;
44696;SDS011;57264;47.480;19.354;2023-03-29T07:40:34;8.67;;;4.00;;
44696;SDS011;57264;47.480;19.354;2023-03-29T07:43:00;4.83;;;3.43;;
44696;SDS011;57264;47.480;19.354;2023-03-29T07:45:27;8.38;;;4.25;;
44696;SDS011;57264;47.480;19.354;2023-03-29T07:47:56;7.55;;;4.07;;
44696;SDS011;57264;47.480;19.354;2023-03-29T07:50:23;7.28;;;4.20;;
44696;SDS011;57264;47.480;19.354;2023-03-29T07:52:49;6.07;;;3.80;;
44696;SDS011;57264;47.480;19.354;2023-03-29T07:55:15;9.20;;;4.17;;
44696;SDS011;57264;47.480;19.354;2023-03-29T07:57:41;7.33;;;3.80;;
44696;SDS011;57264;47.480;19.354;2023-03-29T08:00:08;9.32;;;3.30;;
44696;SDS011;57264;47.480;19.354;2023-03-29T08:02:44;7.28;;;3.63;;
44696;SDS011;57264;47.480;19.354;2023-03-29T08:05:12;6.43;;;3.55;;
44696;SDS011;57264;47.480;19.354;2023-03-29T08:07:39;4.65;;;2.55;;
44696;SDS011;57264;47.480;19.354;2023-03-29T08:10:17;7.25;;;3.10;;
44696;SDS011;57264;47.480;19.354;2023-03-29T08:12:44;4.40;;;2.88;;
44696;SDS011;57264;47.480;19.354;2023-03-29T08:15:11;4.50;;;3.25;;
44696;SDS011;57264;47.480;19.354;2023-03-29T08:17:37;5.60;;;3.00;;
44696;SDS011;57264;47.480;19.354;2023-03-29T08:20:04;5.88;;;3.17;;
44696;SDS011;57264;47.480;19.354;2023-03-29T08:22:33;4.78;;;3.17;;
44696;SDS011;57264;47.480;19.354;2023-03-29T08:24:59;3.60;;;2.67;;
44696;SDS011;57264;47.480;19.354;2023-03-29T08:27:27;4.93;;;3.00;;
44696;SDS011;57264;47.480;19.354;2023-03-29T08:29:52;5.72;;;2.40;;
44696;SDS011;57264;47.480;19.354;2023-03-29T08:32:18;2.97;;;1.90;;
44696;SDS011;57264;47.480;19.354;2023-03-29T08:34:44;3.90;;;1.93;;
44696;SDS011;57264;47.480;19.354;2023-03-29T08:37:11;3.33;;;2.10;;
44696;SDS011;57264;47.480;19.354;2023-03-29T08:39:36;5.07;;;1.93;;
44696;SDS011;57264;47.480;19.354;2023-03-29T08:50:20;3.17;;;1.67;;
44696;SDS011;57264;47.480;19.354;2023-03-29T08:52:56;4.57;;;1.83;;
44696;SDS011;57264;47.480;19.354;2023-03-29T08:55:40;3.53;;;1.67;;
44696;SDS011;57264;47.480;19.354;2023-03-29T08:58:10;4.43;;;1.70;;
44696;SDS011;57264;47.480;19.354;2023-03-29T09:00:47;7.68;;;1.80;;
44696;SDS011;57264;47.480;19.354;2023-03-29T09:03:18;2.83;;;2.03;;
44696;SDS011;57264;47.480;19.354;2023-03-29T09:05:50;3.58;;;2.50;;
44696;SDS011;57264;47.480;19.354;2023-03-29T09:08:21;3.50;;;1.80;;
44696;SDS011;57264;47.480;19.354;2023-03-29T09:13:45;2.50;;;1.60;;
44696;SDS011;57264;47.480;19.354;2023-03-29T09:22:01;2.10;;;1.88;;
44696;SDS011;57264;47.480;19.354;2023-03-29T09:27:19;2.72;;;1.50;;
44696;SDS011;57264;47.480;19.354;2023-03-29T09:29:49;3.90;;;1.67;;
44696;SDS011;57264;47.480;19.354;2023-03-29T09:32:38;1.95;;;1.45;;
44696;SDS011;57264;47.480;19.354;2023-03-29T09:35:20;7.15;;;2.25;;
44696;SDS011;57264;47.480;19.354;2023-03-29T09:37:56;2.58;;;1.60;;
44696;SDS011;57264;47.480;19.354;2023-03-29T09:42:55;4.45;;;1.80;;
44696;SDS011;57264;47.480;19.354;2023-03-29T09:45:23;4.57;;;1.83;;
44696;SDS011;57264;47.480;19.354;2023-03-29T09:50:44;1.60;;;1.17;;
44696;SDS011;57264;47.480;19.354;2023-03-29T09:53:13;2.08;;;1.30;;
44696;SDS011;57264;47.480;19.354;2023-03-29T09:55:39;3.03;;;1.52;;
44696;SDS011;57264;47.480;19.354;2023-03-29T09:58:15;1.90;;;1.40;;
44696;SDS011;57264;47.480;19.354;2023-03-29T10:00:43;2.08;;;1.67;;
44696;SDS011;57264;47.480;19.354;2023-03-29T10:03:20;2.03;;;1.20;;
44696;SDS011;57264;47.480;19.354;2023-03-29T10:05:49;4.07;;;1.67;;
44696;SDS011;57264;47.480;19.354;2023-03-29T10:08:26;3.28;;;1.33;;
44696;SDS011;57264;47.480;19.354;2023-03-29T10:11:02;1.65;;;1.42;;
44696;SDS011;57264;47.480;19.354;2023-03-29T10:13:47;1.73;;;1.30;;
44696;SDS011;57264;47.480;19.354;2023-03-29T10:16:20;5.55;;;2.03;;
44696;SDS011;57264;47.480;19.354;2023-03-29T10:18:47;4.43;;;1.80;;
44696;SDS011;57264;47.480;19.354;2023-03-29T10:21:18;2.95;;;1.60;;
44696;SDS011;57264;47.480;19.354;2023-03-29T10:23:55;3.08;;;1.50;;
44696;SDS011;57264;47.480;19.354;2023-03-29T10:26:30;4.65;;;1.63;;
44696;SDS011;57264;47.480;19.354;2023-03-29T10:28:57;3.55;;;1.70;;
44696;SDS011;57264;47.480;19.354;2023-03-29T10:31:29;2.97;;;1.52;;
44696;SDS011;57264;47.480;19.354;2023-03-29T10:33:57;2.97;;;1.50;;
44696;SDS011;57264;47.480;19.354;2023-03-29T10:36:27;2.55;;;1.90;;
44696;SDS011;57264;47.480;19.354;2023-03-29T10:38:55;3.87;;;1.70;;
44696;SDS011;57264;47.480;19.354;2023-03-29T10:41:23;5.60;;;2.22;;
44696;SDS011;57264;47.480;19.354;2023-03-29T10:43:51;3.05;;;1.63;;
44696;SDS011;57264;47.480;19.354;2023-03-29T10:48:47;5.90;;;1.70;;
44696;SDS011;57264;47.480;19.354;2023-03-29T10:51:22;3.40;;;1.55;;
44696;SDS011;57264;47.480;19.354;2023-03-29T10:53:49;2.95;;;1.88;;
44696;SDS011;57264;47.480;19.354;2023-03-29T10:56:18;4.97;;;1.90;;
44696;SDS011;57264;47.480;19.354;2023-03-29T11:02:01;4.35;;;1.70;;
44696;SDS011;57264;47.480;19.354;2023-03-29T11:04:41;3.88;;;1.80;;
44696;SDS011;57264;47.480;19.354;2023-03-29T11:21:12;2.95;;;1.90;;
44696;SDS011;57264;47.480;19.354;2023-03-29T11:26:45;5.50;;;2.10;;
44696;SDS011;57264;47.480;19.354;2023-03-29T11:29:44;5.00;;;2.17;;
44696;SDS011;57264;47.480;19.354;2023-03-29T11:32:44;7.32;;;1.88;;
44696;SDS011;57264;47.480;19.354;2023-03-29T11:37:58;4.95;;;2.20;;
44696;SDS011;57264;47.480;19.354;2023-03-29T11:46:08;5.35;;;2.55;;
44696;SDS011;57264;47.480;19.354;2023-03-29T11:51:40;4.95;;;2.17;;
44696;SDS011;57264;47.480;19.354;2023-03-29T11:56:59;5.53;;;2.67;;
44696;SDS011;57264;47.480;19.354;2023-03-29T11:59:33;3.92;;;2.50;;
44696;SDS011;57264;47.480;19.354;2023-03-29T12:02:28;4.53;;;2.50;;
44696;SDS011;57264;47.480;19.354;2023-03-29T12:05:02;2.97;;;2.33;;
44696;SDS011;57264;47.480;19.354;2023-03-29T12:07:42;5.05;;;2.45;;
44696;SDS011;57264;47.480;19.354;2023-03-29T12:11:10;3.42;;;2.50;;
44696;SDS011;57264;47.480;19.354;2023-03-29T12:13:38;5.22;;;2.42;;
44696;SDS011;57264;47.480;19.354;2023-03-29T12:16:30;4.72;;;2.53;;
44696;SDS011;57264;47.480;19.354;2023-03-29T12:19:52;4.82;;;2.20;;
44696;SDS011;57264;47.480;19.354;2023-03-29T12:22:10;2.88;;;2.17;;
44696;SDS011;57264;47.480;19.354;2023-03-29T12:24:37;2.90;;;2.47;;
44696;SDS011;57264;47.480;19.354;2023-03-29T12:38:55;5.20;;;2.65;;
44696;SDS011;57264;47.480;19.354;2023-03-29T12:41:22;3.63;;;2.20;;
44696;SDS011;57264;47.480;19.354;2023-03-29T12:43:48;3.67;;;2.58;;
44696;SDS011;57264;47.480;19.354;2023-03-29T12:46:19;3.95;;;2.42;;
44696;SDS011;57264;47.480;19.354;2023-03-29T12:48:54;4.50;;;2.30;;
44696;SDS011;57264;47.480;19.354;2023-03-29T12:51:31;4.65;;;2.22;;
44696;SDS011;57264;47.480;19.354;2023-03-29T12:54:07;3.35;;;2.10;;
44696;SDS011;57264;47.480;19.354;2023-03-29T12:59:34;6.43;;;2.58;;
44696;SDS011;57264;47.480;19.354;2023-03-29T13:02:17;5.07;;;2.50;;
44696;SDS011;57264;47.480;19.354;2023-03-29T13:04:56;5.88;;;2.45;;
44696;SDS011;57264;47.480;19.354;2023-03-29T13:13:39;5.32;;;2.35;;
44696;SDS011;57264;47.480;19.354;2023-03-29T13:16:13;3.80;;;2.10;;
44696;SDS011;57264;47.480;19.354;2023-03-29T13:18:47;5.07;;;2.90;;
44696;SDS011;57264;47.480;19.354;2023-03-29T13:21:27;4.03;;;2.53;;
44696;SDS011;57264;47.480;19.354;2023-03-29T13:24:07;14.27;;;4.28;;
44696;SDS011;57264;47.480;19.354;2023-03-29T13:29:19;4.32;;;2.40;;
44696;SDS011;57264;47.480;19.354;2023-03-29T13:38:18;6.60;;;2.90;;
44696;SDS011;57264;47.480;19.354;2023-03-29T13:45:43;4.15;;;3.00;;
44696;SDS011;57264;47.480;19.354;2023-03-29T13:51:16;4.05;;;2.58;;
44696;SDS011;57264;47.480;19.354;2023-03-29T13:54:00;4.93;;;3.08;;
44696;SDS011;57264;47.480;19.354;2023-03-29T13:56:54;3.25;;;2.50;;
44696;SDS011;57264;47.480;19.354;2023-03-29T13:59:43;6.63;;;3.10;;
44696;SDS011;57264;47.480;19.354;2023-03-29T14:02:17;5.07;;;2.67;;
44696;SDS011;57264;47.480;19.354;2023-03-29T14:05:05;14.73;;;2.85;;
44696;SDS011;57264;47.480;19.354;2023-03-29T14:07:36;8.07;;;2.60;;
44696;SDS011;57264;47.480;19.354;2023-03-29T14:10:03;3.70;;;2.60;;
44696;SDS011;57264;47.480;19.354;2023-03-29T14:12:35;6.10;;;2.70;;
44696;SDS011;57264;47.480;19.354;2023-03-29T14:15:03;6.80;;;3.10;;
44696;SDS011;57264;47.480;19.354;2023-03-29T14:17:30;4.95;;;2.67;;
44696;SDS011;57264;47.480;19.354;2023-03-29T14:19:57;5.47;;;2.47;;
44696;SDS011;57264;47.480;19.354;2023-03-29T14:22:28;7.10;;;3.38;;
44696;SDS011;57264;47.480;19.354;2023-03-29T14:24:59;5.75;;;3.10;;
44696;SDS011;57264;47.480;19.354;2023-03-29T14:27:30;3.45;;;2.72;;
44696;SDS011;57264;47.480;19.354;2023-03-29T14:29:56;9.35;;;4.15;;
44696;SDS011;57264;47.480;19.354;2023-03-29T14:32:29;4.30;;;3.20;;
44696;SDS011;57264;47.480;19.354;2023-03-29T14:34:56;5.40;;;3.03;;
44696;SDS011;57264;47.480;19.354;2023-03-29T14:37:24;4.40;;;2.90;;
44696;SDS011;57264;47.480;19.354;2023-03-29T14:39:54;8.52;;;3.22;;
44696;SDS011;57264;47.480;19.354;2023-03-29T14:42:26;6.90;;;3.20;;
44696;SDS011;57264;47.480;19.354;2023-03-29T14:44:57;5.78;;;3.60;;
44696;SDS011;57264;47.480;19.354;2023-03-29T14:47:29;5.10;;;2.70;;
44696;SDS011;57264;47.480;19.354;2023-03-29T14:49:56;4.78;;;3.15;;
44696;SDS011;57264;47.480;19.354;2023-03-29T14:52:28;21.60;;;4.00;;
44696;SDS011;57264;47.480;19.354;2023-03-29T14:54:55;6.13;;;4.00;;
44696;SDS011;57264;47.480;19.354;2023-03-29T14:57:25;9.50;;;4.93;;
44696;SDS011;57264;47.480;19.354;2023-03-29T15:00:10;13.85;;;6.22;;
44696;SDS011;57264;47.480;19.354;2023-03-29T15:02:52;15.45;;;7.05;;
44696;SDS011;57264;47.480;19.354;2023-03-29T15:05:39;10.90;;;5.18;;
44696;SDS011;57264;47.480;19.354;2023-03-29T15:08:12;8.27;;;4.18;;
44696;SDS011;57264;47.480;19.354;2023-03-29T15:10:40;9.65;;;3.83;;
44696;SDS011;57264;47.480;19.354;2023-03-29T15:13:06;5.27;;;3.07;;
44696;SDS011;57264;47.480;19.354;2023-03-29T15:15:33;6.70;;;4.20;;
44696;SDS011;57264;47.480;19.354;2023-03-29T15:18:03;8.35;;;4.13;;
44696;SDS011;57264;47.480;19.354;2023-03-29T15:20:32;8.63;;;2.92;;
44696;SDS011;57264;47.480;19.354;2023-03-29T15:25:33;7.25;;;3.28;;
44696;SDS011;57264;47.480;19.354;2023-03-29T15:28:03;11.77;;;4.53;;
44696;SDS011;57264;47.480;19.354;2023-03-29T15:30:37;8.32;;;4.20;;
44696;SDS011;57264;47.480;19.354;2023-03-29T15:34:00;6.57;;;3.20;;
44696;SDS011;57264;47.480;19.354;2023-03-29T15:38:26;5.20;;;3.40;;
44696;SDS011;57264;47.480;19.354;2023-03-29T15:40:52;7.77;;;3.80;;
44696;SDS011;57264;47.480;19.354;2023-03-29T15:43:18;6.70;;;4.30;;
44696;SDS011;57264;47.480;19.354;2023-03-29T15:45:47;10.18;;;4.22;;
44696;SDS011;57264;47.480;19.354;2023-03-29T15:48:17;7.68;;;4.10;;
44696;SDS011;57264;47.480;19.354;2023-03-29T15:50:47;6.70;;;3.72;;
44696;SDS011;57264;47.480;19.354;2023-03-29T15:53:16;7.85;;;3.70;;
44696;SDS011;57264;47.480;19.354;2023-03-29T15:55:45;4.50;;;3.22;;
44696;SDS011;57264;47.480;19.354;2023-03-29T15:58:14;4.88;;;3.17;;
44696;SDS011;57264;47.480;19.354;2023-03-29T16:00:43;5.13;;;2.60;;
44696;SDS011;57264;47.480;19.354;2023-03-29T16:03:15;8.73;;;3.42;;
44696;SDS011;57264;47.480;19.354;2023-03-29T16:05:42;5.28;;;2.72;;
44696;SDS011;57264;47.480;19.354;2023-03-29T16:08:10;6.07;;;3.30;;
44696;SDS011;57264;47.480;19.354;2023-03-29T16:10:37;5.65;;;3.47;;
44696;SDS011;57264;47.480;19.354;2023-03-29T16:13:03;5.35;;;3.55;;
44696;SDS011;57264;47.480;19.354;2023-03-29T16:15:29;8.00;;;4.10;;
44696;SDS011;57264;47.480;19.354;2023-03-29T16:17:58;5.05;;;3.10;;
44696;SDS011;57264;47.480;19.354;2023-03-29T16:20:23;6.33;;;3.13;;
44696;SDS011;57264;47.480;19.354;2023-03-29T16:22:49;7.67;;;3.57;;
44696;SDS011;57264;47.480;19.354;2023-03-29T16:25:16;4.97;;;3.17;;
44696;SDS011;57264;47.480;19.354;2023-03-29T16:27:46;12.10;;;4.00;;
44696;SDS011;57264;47.480;19.354;2023-03-29T16:30:13;11.02;;;4.18;;
44696;SDS011;57264;47.480;19.354;2023-03-29T16:32:39;8.50;;;4.50;;
44696;SDS011;57264;47.480;19.354;2023-03-29T16:35:06;8.30;;;4.63;;
44696;SDS011;57264;47.480;19.354;2023-03-29T16:37:46;8.20;;;3.92;;
44696;SDS011;57264;47.480;19.354;2023-03-29T16:40:11;8.73;;;4.63;;
44696;SDS011;57264;47.480;19.354;2023-03-29T16:42:37;7.83;;;3.60;;
44696;SDS011;57264;47.480;19.354;2023-03-29T16:45:03;7.28;;;3.83;;
44696;SDS011;57264;47.480;19.354;2023-03-29T16:47:29;8.10;;;4.32;;
44696;SDS011;57264;47.480;19.354;2023-03-29T16:49:55;9.07;;;4.47;;
44696;SDS011;57264;47.480;19.354;2023-03-29T16:52:21;8.87;;;4.07;;
44696;SDS011;57264;47.480;19.354;2023-03-29T16:54:47;6.22;;;3.75;;